Time;durP1;ratioP1;P1;durP2;ratioP2;P2;SDS_P1;SDS_P2;PMS_P1;PMS_P2;Temp;Humidity;BMP_temperature;BMP_pressure;BME280_temperature;BME280_humidity;BME280_pressure;Samples;Min_cycle;Max_cycle;Signal;HPM_P1;HPM_P2
2021/03/17 00:01:51;;;;;;;;;;;;;;;5.93;65.17;99622.63;1738976;82;20281;-53
2021/03/17 00:05:19;;;;;;;;;;;;;;;5.92;65.09;99614.12;1752000;81;20217;-52
2021/03/17 00:08:42;;;;;;;;;;;;;;;5.97;65.05;99611.77;1725016;82;20284;-53
2021/03/17 00:12:04;;;;;;;;;;;;;;;6.00;64.91;99604.64;1725944;83;20280;-53
2021/03/17 00:15:28;;;;;;;;;;;;;;;6.02;64.90;99606.69;1726048;83;20273;-53
2021/03/17 00:18:54;;;;;;;;;;;;;;;6.03;64.82;99600.23;1726016;82;20799;-52
2021/03/17 00:22:16;;;;;;;;;;;;;;;6.07;64.75;99593.46;1726020;82;20241;-53
2021/03/17 00:25:41;;;;;;;;;;;;;;;6.07;64.62;99590.75;1725942;83;20351;-53
2021/03/17 00:29:04;;;;;;;;;;;;;;;6.03;64.73;99586.15;1725977;82;20277;-53
2021/03/17 00:32:26;;;;;;;;;;;;;;;6.04;64.71;99582.41;1725970;82;20281;-52
2021/03/17 00:35:50;;;;;;;;;;;;;;;6.06;64.71;99580.38;1725921;83;20305;-52
2021/03/17 00:39:14;;;;;;;;;;;;;;;6.07;64.71;99578.52;1726018;82;20269;-53
2021/03/17 00:42:36;;;;;;;;;;;;;;;6.10;64.60;99579.02;1726438;82;20609;-53
2021/03/17 00:45:57;;;;;;;;;;;;;;;6.08;64.54;99582.42;1726066;83;20845;-52
2021/03/17 00:49:00;;;;;;;;;;;;;;;6.08;64.54;99578.85;1726110;82;20307;-53
2021/03/17 00:52:04;;;;;;;;;;;;;;;6.05;64.58;99567.83;1725931;82;20305;-53
2021/03/17 00:55:26;;;;;;;;;;;;;;;6.08;64.63;99572.06;1726049;83;20297;-53
2021/03/17 00:58:34;;;;;;;;;;;;;;;6.11;64.59;99571.72;1728250;82;20285;-53
2021/03/17 01:01:38;;;;;;;;;;;;;;;6.11;64.54;99563.57;1726330;83;20241;-53
2021/03/17 01:04:44;;;;;;;;;;;;;;;6.09;64.53;99554.73;1726180;83;20609;-54
2021/03/17 01:07:49;;;;;;;;;;;;;;;6.08;64.59;99553.05;1731770;79;20269;-53
2021/03/17 01:10:54;;;;;;;;;;;;;;;6.06;64.56;99555.06;1712776;84;20537;-53
2021/03/17 01:13:59;;;;;;;;;;;;;;;5.99;64.77;99550.81;1712953;82;20212;-52
2021/03/17 01:17:03;;;;;;;;;;;;;;;5.94;64.88;99553.20;1712896;84;20288;-54
2021/03/17 01:20:08;;;;;;;;;;;;;;;5.95;65.01;99549.45;1712880;84;20311;-52
2021/03/17 01:23:12;;;;;;;;;;;;;;;5.97;65.08;99550.65;1712882;82;20213;-53
2021/03/17 01:26:16;;;;;;;;;;;;;;;5.98;65.06;99550.98;1712974;84;20276;-54
2021/03/17 01:29:20;;;;;;;;;;;;;;;5.99;65.08;99551.34;1712906;82;20315;-54
2021/03/17 01:32:25;;;;;;;;;;;;;;;6.01;65.12;99547.92;1712842;82;20248;-53
2021/03/17 01:35:32;;;;;;;;;;;;;;;6.04;65.08;99548.98;1712889;84;20217;-53
2021/03/17 01:38:35;;;;;;;;;;;;;;;6.07;65.01;99544.56;1712897;82;20592;-53
2021/03/17 01:41:41;;;;;;;;;;;;;;;6.09;64.87;99546.58;1712912;84;20589;-53
2021/03/17 01:44:45;;;;;;;;;;;;;;;6.11;64.92;99547.27;1712820;84;20264;-53
2021/03/17 01:47:49;;;;;;;;;;;;;;;6.13;64.81;99539.81;1712847;82;20260;-52
2021/03/17 01:51:00;;;;;;;;;;;;;;;6.10;64.76;99542.33;1712827;84;20568;-52
2021/03/17 01:54:06;;;;;;;;;;;;;;;6.14;64.77;99542.86;1712793;82;20209;-52
2021/03/17 01:57:12;;;;;;;;;;;;;;;6.17;64.64;99543.87;1712869;82;20247;-52
2021/03/17 02:00:20;;;;;;;;;;;;;;;6.18;64.63;99542.88;1712785;84;20272;-52
2021/03/17 02:03:26;;;;;;;;;;;;;;;6.16;64.47;99542.69;1712740;82;20335;-52
2021/03/17 02:06:31;;;;;;;;;;;;;;;6.12;64.54;99538.09;1712715;84;20381;-53
2021/03/17 02:09:36;;;;;;;;;;;;;;;6.10;64.55;99532.83;1707151;82;20225;-53
2021/03/17 02:13:00;;;;;;;;;;;;;;;6.09;64.62;99535.71;1696174;83;20210;-52
2021/03/17 02:16:24;;;;;;;;;;;;;;;6.11;64.61;99537.77;1696805;83;20221;-53
2021/03/17 02:19:38;;;;;;;;;;;;;;;6.13;64.56;99534.38;1696069;83;20266;-53
2021/03/17 02:22:57;;;;;;;;;;;;;;;6.14;64.62;99535.23;1696714;83;20217;-54
2021/03/17 02:26:14;;;;;;;;;;;;;;;6.18;64.45;99532.50;1696890;83;20241;-53
2021/03/17 02:29:27;;;;;;;;;;;;;;;6.15;64.35;99535.56;1696068;83;20557;-52
2021/03/17 02:32:53;;;;;;;;;;;;;;;6.16;64.43;99538.61;1697152;83;20618;-54
2021/03/17 02:36:00;;;;;;;;;;;;;;;6.15;64.43;99536.92;1697191;83;20225;-53
2021/03/17 02:39:35;;;;;;;;;;;;;;;6.15;64.39;99528.77;1697191;83;20225;-53
2021/03/17 02:43:00;;;;;;;;;;;;;;;6.10;64.31;99529.28;1696543;83;20229;-53
2021/03/17 02:46:12;;;;;;;;;;;;;;;6.06;64.54;99523.83;1697084;83;20221;-54
2021/03/17 02:49:26;;;;;;;;;;;;;;;6.04;64.58;99529.96;1696010;83;20225;-52
2021/03/17 02:52:31;;;;;;;;;;;;;;;6.04;64.66;99525.35;1696892;83;20295;-52
2021/03/17 02:55:39;;;;;;;;;;;;;;;6.01;64.73;99522.12;1696359;83;20257;-53
2021/03/17 02:58:45;;;;;;;;;;;;;;;5.98;64.79;99519.24;1696524;83;20213;-54
2021/03/17 03:01:50;;;;;;;;;;;;;;;6.01;64.90;99515.33;1696102;83;20221;-54
2021/03/17 03:04:58;;;;;;;;;;;;;;;6.06;64.84;99521.97;1697248;83;20220;-52
2021/03/17 03:08:04;;;;;;;;;;;;;;;6.09;64.81;99510.77;1696768;83;20260;-54
2021/03/17 03:11:10;;;;;;;;;;;;;;;6.12;64.85;99511.45;1714570;79;20200;-54
2021/03/17 03:14:17;;;;;;;;;;;;;;;6.13;64.89;99509.92;1722897;82;20627;-53
2021/03/17 03:17:21;;;;;;;;;;;;;;;6.09;65.03;99509.91;1722878;82;20411;-53
2021/03/17 03:20:31;;;;;;;;;;;;;;;6.08;65.33;99511.80;1722782;83;20580;-52
2021/03/17 03:23:35;;;;;;;;;;;;;;;6.09;65.53;99505.83;1722833;82;20276;-52
2021/03/17 03:26:42;;;;;;;;;;;;;;;6.11;65.71;99511.95;1722882;83;20291;-53
2021/03/17 03:29:50;;;;;;;;;;;;;;;6.08;65.86;99505.00;1722849;83;20330;-52
2021/03/17 03:32:54;;;;;;;;;;;;;;;6.08;66.03;99513.65;1722884;82;20200;-53
2021/03/17 03:36:00;;;;;;;;;;;;;;;6.06;66.26;99510.24;1723037;83;20279;-53
2021/03/17 03:39:07;;;;;;;;;;;;;;;6.05;66.45;99512.63;1722801;82;20336;-53
2021/03/17 03:42:11;;;;;;;;;;;;;;;6.02;66.62;99508.36;1722777;82;20324;-53
2021/03/17 03:45:18;;;;;;;;;;;;;;;5.98;66.70;99509.73;1723046;83;20292;-53
2021/03/17 03:48:24;;;;;;;;;;;;;;;5.97;66.85;99509.41;1723016;82;20652;-52
2021/03/17 03:51:31;;;;;;;;;;;;;;;5.93;66.99;99518.06;1722826;83;20271;-53
2021/03/17 03:54:39;;;;;;;;;;;;;;;5.91;67.04;99514.66;1722739;83;20291;-52
2021/03/17 03:57:54;;;;;;;;;;;;;;;5.91;67.15;99507.34;1722867;82;20236;-52
2021/03/17 04:01:00;;;;;;;;;;;;;;;5.89;67.17;99504.45;1722793;83;20311;-51
2021/03/17 04:04:12;;;;;;;;;;;;;;;5.85;67.26;99505.83;1722703;82;20216;-54
2021/03/17 04:07:17;;;;;;;;;;;;;;;5.83;67.37;99505.14;1722733;82;20212;-54
2021/03/17 04:10:24;;;;;;;;;;;;;;;5.78;67.42;99503.39;1722812;83;20200;-55
2021/03/17 04:13:31;;;;;;;;;;;;;;;5.72;67.54;99497.28;1722899;82;20263;-54
2021/03/17 04:16:36;;;;;;;;;;;;;;;5.63;67.80;99504.55;1722806;83;20224;-54
2021/03/17 04:19:41;;;;;;;;;;;;;;;5.62;67.97;99508.28;1722914;83;20283;-54
2021/03/17 04:22:47;;;;;;;;;;;;;;;5.66;68.13;99503.38;1722927;82;20275;-53
2021/03/17 04:25:57;;;;;;;;;;;;;;;5.67;68.23;99502.36;1722863;83;20664;-53
2021/03/17 04:29:02;;;;;;;;;;;;;;;5.71;68.21;99507.78;1705044;83;20212;-54
2021/03/17 04:32:09;;;;;;;;;;;;;;;5.71;68.20;99505.06;1722863;82;20299;-53
2021/03/17 04:35:15;;;;;;;;;;;;;;;5.60;68.37;99508.09;1722817;83;20279;-54
2021/03/17 04:38:21;;;;;;;;;;;;;;;5.58;68.59;99502.00;1722889;82;20568;-53
2021/03/17 04:41:27;;;;;;;;;;;;;;;5.61;68.65;99507.09;1722760;83;20279;-54
2021/03/17 04:44:34;;;;;;;;;;;;;;;5.63;68.69;99511.83;1722795;83;20331;-55
2021/03/17 04:47:41;;;;;;;;;;;;;;;5.61;68.69;99501.14;1722793;82;20315;-55
2021/03/17 04:50:47;;;;;;;;;;;;;;;5.60;68.75;99499.45;1722943;83;20268;-54
2021/03/17 04:53:51;;;;;;;;;;;;;;;5.62;68.87;99501.50;1722824;82;20279;-55
2021/03/17 04:56:55;;;;;;;;;;;;;;;5.65;68.86;99498.45;1722885;83;20283;-55
2021/03/17 04:59:59;;;;;;;;;;;;;;;5.69;68.83;99501.69;1722826;83;20259;-54
2021/03/17 05:03:11;;;;;;;;;;;;;;;5.73;68.84;99503.03;1722825;82;20616;-53
2021/03/17 05:06:16;;;;;;;;;;;;;;;5.74;68.71;99503.40;1722801;83;20251;-55
2021/03/17 05:09:23;;;;;;;;;;;;;;;5.74;68.73;99508.83;1722936;82;20879;-54
2021/03/17 05:12:26;;;;;;;;;;;;;;;5.75;68.77;99514.59;1717165;83;20309;-55
2021/03/17 05:15:31;;;;;;;;;;;;;;;5.74;68.69;99511.02;1696621;83;20252;-54
2021/03/17 05:18:36;;;;;;;;;;;;;;;5.73;68.80;99512.55;1695998;83;20222;-55
2021/03/17 05:21:40;;;;;;;;;;;;;;;5.74;68.91;99518.34;1696046;85;20201;-55
2021/03/17 05:24:44;;;;;;;;;;;;;;;5.76;68.93;99520.35;1695944;83;20245;-54
2021/03/17 05:27:48;;;;;;;;;;;;;;;5.72;68.90;99514.39;1696752;83;20225;-55
2021/03/17 05:30:55;;;;;;;;;;;;;;;5.71;69.04;99518.64;1695724;83;20265;-54
2021/03/17 05:33:58;;;;;;;;;;;;;;;5.72;69.05;99524.43;1695767;83;20280;-54
2021/03/17 05:37:04;;;;;;;;;;;;;;;5.73;68.99;99517.97;1696277;83;20229;-54
2021/03/17 05:40:08;;;;;;;;;;;;;;;5.71;69.05;99517.28;1696498;83;20252;-55
2021/03/17 05:43:13;;;;;;;;;;;;;;;5.72;69.06;99522.54;1693899;83;20229;-55
2021/03/17 05:46:18;;;;;;;;;;;;;;;5.71;69.00;99522.20;1693664;85;20217;-56
2021/03/17 05:49:21;;;;;;;;;;;;;;;5.66;69.00;99523.20;1663172;84;20243;-55
2021/03/17 05:52:26;;;;;;;;;;;;;;;5.61;69.01;99524.74;1703724;83;20438;-55
2021/03/17 05:55:29;;;;;;;;;;;;;;;5.58;69.11;99519.64;1725684;83;20232;-53
2021/03/17 05:58:33;;;;;;;;;;;;;;;5.54;69.24;99519.61;1725137;82;20229;-54
2021/03/17 06:01:39;;;;;;;;;;;;;;;5.54;69.26;99523.69;1725144;83;20550;-54
2021/03/17 06:04:47;;;;;;;;;;;;;;;5.52;69.32;99529.28;1723677;83;20213;-56
2021/03/17 06:07:54;;;;;;;;;;;;;;;5.53;69.39;99535.57;1724426;82;20210;-56
2021/03/17 06:10:59;;;;;;;;;;;;;;;5.54;69.48;99534.55;1723212;83;20206;-56
2021/03/17 06:14:05;;;;;;;;;;;;;;;5.52;69.53;99540.63;1728351;79;20612;-56
2021/03/17 06:17:13;;;;;;;;;;;;;;;5.54;69.73;99537.26;1732930;82;20205;-57
2021/03/17 06:20:20;;;;;;;;;;;;;;;5.52;69.72;99533.84;1740956;82;20216;-57
2021/03/17 06:23:28;;;;;;;;;;;;;;;5.54;69.83;99532.69;1718283;82;20278;-57
2021/03/17 06:26:35;;;;;;;;;;;;;;;5.58;69.89;99531.86;1740398;82;20252;-57
2021/03/17 06:29:42;;;;;;;;;;;;;;;5.61;69.92;99535.07;1743470;80;20221;-56
2021/03/17 06:32:46;;;;;;;;;;;;;;;5.62;69.89;99534.08;1720718;82;20347;-55
2021/03/17 06:35:53;;;;;;;;;;;;;;;5.65;69.90;99532.88;1720823;83;20282;-56
2021/03/17 06:38:59;;;;;;;;;;;;;;;5.68;69.92;99533.91;1720968;82;20244;-57
2021/03/17 06:42:05;;;;;;;;;;;;;;;5.68;69.89;99538.84;1720063;83;20269;-58
2021/03/17 06:45:15;;;;;;;;;;;;;;;5.73;69.98;99539.19;1735553;82;20210;-56
2021/03/17 06:48:35;;;;;;;;;;;;;;;5.78;70.02;99530.55;1750303;80;20193;-56
2021/03/17 06:51:41;;;;;;;;;;;;;;;5.85;69.99;99539.77;1749867;82;20197;-58
2021/03/17 06:54:48;;;;;;;;;;;;;;;5.87;69.92;99539.08;1751453;80;20270;-56
2021/03/17 06:58:01;;;;;;;;;;;;;;;5.93;69.89;99539.79;1750393;80;20205;-56
2021/03/17 07:01:06;;;;;;;;;;;;;;;5.99;69.87;99533.69;1750073;82;20198;-55
2021/03/17 07:04:35;;;;;;;;;;;;;;;6.03;69.79;99533.67;1749577;82;20311;-56
2021/03/17 07:07:38;;;;;;;;;;;;;;;6.08;69.69;99532.67;1739357;81;20566;-55
2021/03/17 07:10:49;;;;;;;;;;;;;;;6.11;69.57;99532.33;1745804;82;20210;-56
2021/03/17 07:14:03;;;;;;;;;;;;;;;6.13;69.42;99537.59;1747323;82;20202;-56
2021/03/17 07:17:11;;;;;;;;;;;;;;;6.14;69.29;99533.34;1695993;82;20280;-57
2021/03/17 07:20:16;;;;;;;;;;;;;;;6.11;69.30;99536.41;1689133;85;20233;-55
2021/03/17 07:23:47;;;;;;;;;;;;;;;6.14;69.40;99535.23;1689891;83;20740;-56
2021/03/17 07:26:51;;;;;;;;;;;;;;;6.17;69.40;99534.36;1700518;82;20209;-56
2021/03/17 07:30:08;;;;;;;;;;;;;;;6.23;69.39;99530.14;1724242;83;20233;-57
2021/03/17 07:33:14;;;;;;;;;;;;;;;6.25;69.26;99539.80;1724161;83;20206;-57
2021/03/17 07:36:19;;;;;;;;;;;;;;;6.25;69.08;99534.91;1723939;83;20286;-56
2021/03/17 07:39:44;;;;;;;;;;;;;;;6.25;69.03;99537.09;1724552;83;20253;-56
2021/03/17 07:42:49;;;;;;;;;;;;;;;6.24;68.96;99531.83;1696555;83;20278;-56
2021/03/17 07:45:55;;;;;;;;;;;;;;;6.22;68.99;99532.49;1720492;83;20292;-56
2021/03/17 07:49:01;;;;;;;;;;;;;;;6.19;69.11;99534.20;1723814;82;20262;-56
2021/03/17 07:52:07;;;;;;;;;;;;;;;6.19;69.18;99529.62;1724480;82;20597;-56
2021/03/17 07:55:12;;;;;;;;;;;;;;;6.16;69.30;99525.02;1708187;83;20205;-56
2021/03/17 07:58:17;;;;;;;;;;;;;;;6.19;69.38;99526.91;1724463;82;20209;-58
2021/03/17 08:01:26;;;;;;;;;;;;;;;6.22;69.41;99527.92;1724569;82;20216;-57
2021/03/17 08:04:37;;;;;;;;;;;;;;;6.27;69.52;99530.13;1725789;82;20240;-57
2021/03/17 08:07:46;;;;;;;;;;;;;;;6.32;69.46;99527.25;1724991;82;20389;-57
2021/03/17 08:10:51;;;;;;;;;;;;;;;6.34;69.32;99528.44;1687878;83;20598;-57
2021/03/17 08:13:57;;;;;;;;;;;;;;;6.35;69.37;99536.42;1696430;83;20282;-57
2021/03/17 08:17:03;;;;;;;;;;;;;;;6.38;69.39;99527.92;1690882;80;20248;-56
2021/03/17 08:20:30;;;;;;;;;;;;;;;6.44;69.27;99525.88;1687047;85;20208;-55
2021/03/17 08:23:50;;;;;;;;;;;;;;;6.49;69.25;99527.58;1713444;84;20609;-55
2021/03/17 08:26:54;;;;;;;;;;;;;;;6.49;68.95;99526.22;1713600;83;20277;-56
2021/03/17 08:30:18;;;;;;;;;;;;;;;6.49;69.04;99533.02;1708453;83;20568;-56
2021/03/17 08:33:42;;;;;;;;;;;;;;;6.51;69.08;99530.13;1708118;83;20208;-55
2021/03/17 08:36:49;;;;;;;;;;;;;;;6.52;68.96;99527.23;1713819;83;20225;-56
2021/03/17 08:39:55;;;;;;;;;;;;;;;6.48;68.84;99527.75;1698990;84;20534;-56
2021/03/17 08:42:58;;;;;;;;;;;;;;;6.45;69.13;99522.16;1713841;83;20566;-55
2021/03/17 08:46:14;;;;;;;;;;;;;;;6.47;69.15;99523.34;1714026;83;20220;-57
2021/03/17 08:49:22;;;;;;;;;;;;;;;6.46;69.17;99527.92;1714106;83;20301;-57
2021/03/17 08:52:29;;;;;;;;;;;;;;;6.52;69.16;99525.88;1714341;83;20569;-56
2021/03/17 08:55:47;;;;;;;;;;;;;;;6.61;69.16;99524.02;1714023;83;20297;-55
2021/03/17 08:58:52;;;;;;;;;;;;;;;6.64;68.97;99521.80;1712802;83;20609;-56
2021/03/17 09:01:56;;;;;;;;;;;;;;;6.63;68.90;99524.16;1691483;83;20237;-57
2021/03/17 09:05:07;;;;;;;;;;;;;;;6.64;68.79;99524.52;1710197;82;20281;-56
2021/03/17 09:08:13;;;;;;;;;;;;;;;6.59;68.66;99527.41;1738254;81;20304;-56
2021/03/17 09:11:20;;;;;;;;;;;;;;;6.57;68.78;99527.58;1721505;83;20206;-56
2021/03/17 09:14:30;;;;;;;;;;;;;;;6.65;68.92;99525.34;1715023;82;20490;-61
2021/03/17 09:17:35;;;;;;;;;;;;;;;6.76;68.96;99527.21;1720486;81;20751;-55
2021/03/17 09:20:42;;;;;;;;;;;;;;;6.88;68.81;99524.45;1722918;83;20532;-57
2021/03/17 09:23:46;;;;;;;;;;;;;;;6.96;68.44;99537.22;1723524;83;20213;-55
2021/03/17 09:26:50;;;;;;;;;;;;;;;6.98;68.19;99533.78;1723920;83;20655;-55
2021/03/17 09:29:53;;;;;;;;;;;;;;;6.99;68.01;99536.33;1725473;82;20584;-56
2021/03/17 09:33:13;;;;;;;;;;;;;;;6.98;67.87;99541.95;1705691;81;20577;-55
2021/03/17 09:36:27;;;;;;;;;;;;;;;7.00;68.08;99539.41;1725077;83;20506;-55
2021/03/17 09:39:31;;;;;;;;;;;;;;;7.01;68.11;99534.30;1724881;83;20201;-56
2021/03/17 09:42:34;;;;;;;;;;;;;;;6.99;68.03;99542.30;1723924;82;20221;-56
2021/03/17 09:45:38;;;;;;;;;;;;;;;7.01;68.04;99545.17;1724339;83;20217;-56
2021/03/17 09:48:43;;;;;;;;;;;;;;;7.02;68.03;99541.45;1724143;82;20246;-56
2021/03/17 09:51:51;;;;;;;;;;;;;;;7.03;67.82;99539.06;1724781;83;20213;-57
2021/03/17 09:54:55;;;;;;;;;;;;;;;7.05;67.53;99538.88;1724131;83;20649;-56
2021/03/17 09:58:09;;;;;;;;;;;;;;;7.07;67.53;99539.56;1724794;82;20202;-56
2021/03/17 10:01:18;;;;;;;;;;;;;;;7.09;67.62;99545.66;1724173;83;20291;-56
2021/03/17 10:04:29;;;;;;;;;;;;;;;7.11;67.55;99539.04;1723341;83;20281;-58
2021/03/17 10:07:39;;;;;;;;;;;;;;;7.12;67.42;99543.45;1725418;82;20553;-56
2021/03/17 10:10:44;;;;;;;;;;;;;;;7.14;67.30;99544.63;1724640;82;20831;-56
2021/03/17 10:13:47;;;;;;;;;;;;;;;7.20;67.52;99551.59;1723463;82;20275;-56
2021/03/17 10:16:51;;;;;;;;;;;;;;;7.24;67.35;99547.52;1723998;81;20232;-57
2021/03/17 10:20:01;;;;;;;;;;;;;;;7.22;67.38;99548.19;1725487;83;20276;-57
2021/03/17 10:23:07;;;;;;;;;;;;;;;7.24;67.24;99554.31;1687642;84;20197;-56
2021/03/17 10:26:12;;;;;;;;;;;;;;;7.25;67.45;99545.12;1705285;83;20208;-57
2021/03/17 10:29:15;;;;;;;;;;;;;;;7.26;67.47;99546.80;1692806;83;20276;-56
2021/03/17 10:32:24;;;;;;;;;;;;;;;7.33;67.55;99547.81;1679384;84;20216;-57
2021/03/17 10:35:30;;;;;;;;;;;;;;;7.37;67.44;99540.98;1673546;86;20554;-56
2021/03/17 10:38:33;;;;;;;;;;;;;;;7.40;67.23;99539.26;1677642;84;20208;-55
2021/03/17 10:41:51;;;;;;;;;;;;;;;7.42;67.29;99530.41;1703886;84;20484;-56
2021/03/17 10:45:17;;;;;;;;;;;;;;;7.45;67.14;99533.31;1673547;84;20243;-56
2021/03/17 10:48:24;;;;;;;;;;;;;;;7.40;67.01;99532.98;1674139;84;20214;-56
2021/03/17 10:51:29;;;;;;;;;;;;;;;7.45;66.92;99534.14;1673974;86;20226;-56
2021/03/17 10:54:36;;;;;;;;;;;;;;;7.50;67.02;99531.73;1686149;85;20229;-56
2021/03/17 10:57:41;;;;;;;;;;;;;;;7.56;66.88;99526.94;1714175;82;20217;-56
2021/03/17 11:00:48;;;;;;;;;;;;;;;7.58;66.74;99530.84;1715604;83;20212;-56
2021/03/17 11:03:52;;;;;;;;;;;;;;;7.60;66.85;99534.25;1715959;82;20212;-56
2021/03/17 11:07:05;;;;;;;;;;;;;;;7.62;66.75;99529.48;1738051;82;20213;-56
2021/03/17 11:10:11;;;;;;;;;;;;;;;7.69;66.81;99534.53;1748935;82;20561;-56
2021/03/17 11:13:25;;;;;;;;;;;;;;;7.76;66.72;99530.58;1739555;81;20265;-56
2021/03/17 11:16:38;;;;;;;;;;;;;;;7.78;66.53;99526.67;1739438;82;20218;-55
2021/03/17 11:19:40;;;;;;;;;;;;;;;7.75;66.53;99522.09;1735017;79;20217;-55
2021/03/17 11:22:46;;;;;;;;;;;;;;;7.71;66.77;99524.31;1747010;81;20546;-53
2021/03/17 11:25:50;;;;;;;;;;;;;;;7.73;66.84;99523.63;1747286;82;20585;-54
2021/03/17 11:28:54;;;;;;;;;;;;;;;7.78;66.74;99525.81;1747165;81;20229;-53
2021/03/17 11:32:02;;;;;;;;;;;;;;;7.87;66.60;99517.91;1747642;82;20371;-55
2021/03/17 11:35:09;;;;;;;;;;;;;;;7.97;66.25;99518.55;1747114;81;20320;-54
2021/03/17 11:38:12;;;;;;;;;;;;;;;8.05;65.93;99516.62;1747474;81;20574;-53
2021/03/17 11:41:16;;;;;;;;;;;;;;;8.07;65.52;99517.80;1751273;82;20260;-54
2021/03/17 11:44:26;;;;;;;;;;;;;;;8.09;65.54;99512.49;1728788;82;20244;-54
2021/03/17 11:47:30;;;;;;;;;;;;;;;8.13;65.40;99517.08;1753597;82;20254;-54
2021/03/17 11:50:35;;;;;;;;;;;;;;;8.13;65.34;99521.16;1754313;81;20358;-55
2021/03/17 11:53:41;;;;;;;;;;;;;;;8.10;65.57;99521.53;1753915;81;20351;-54
2021/03/17 11:56:46;;;;;;;;;;;;;;;8.02;65.20;99531.13;1751478;82;20341;-54
2021/03/17 11:59:50;;;;;;;;;;;;;;;7.93;65.42;99526.77;1752031;82;20349;-53
2021/03/17 12:02:55;;;;;;;;;;;;;;;7.85;65.46;99529.53;1724376;82;20502;-54
2021/03/17 12:06:00;;;;;;;;;;;;;;;7.80;65.80;99533.30;1725145;83;20540;-54
2021/03/17 12:09:04;;;;;;;;;;;;;;;7.76;65.81;99530.58;1724941;82;20219;-54
2021/03/17 12:12:08;;;;;;;;;;;;;;;7.71;65.89;99524.84;1732697;81;20210;-54
2021/03/17 12:15:13;;;;;;;;;;;;;;;7.69;66.08;99529.08;1716345;82;20593;-53
2021/03/17 12:18:19;;;;;;;;;;;;;;;7.70;66.29;99536.75;1739508;81;20673;-53
2021/03/17 12:21:22;;;;;;;;;;;;;;;7.71;66.32;99534.38;1728074;82;20559;-53
2021/03/17 12:24:27;;;;;;;;;;;;;;;7.70;66.36;99540.34;1719996;83;20303;-53
2021/03/17 12:27:30;;;;;;;;;;;;;;;7.71;66.16;99539.83;1719836;83;20494;-55
2021/03/17 12:30:34;;;;;;;;;;;;;;;7.67;66.02;99542.56;1734121;82;20221;-54
2021/03/17 12:33:40;;;;;;;;;;;;;;;7.60;66.14;99546.50;1735378;82;20223;-54
2021/03/17 12:36:43;;;;;;;;;;;;;;;7.54;66.13;99542.63;1718065;82;20350;-54
2021/03/17 12:39:49;;;;;;;;;;;;;;;7.44;66.34;99545.20;1719923;82;20526;-56
2021/03/17 12:42:54;;;;;;;;;;;;;;;7.37;66.34;99536.89;1745772;82;20255;-54
2021/03/17 12:45:59;;;;;;;;;;;;;;;7.35;66.67;99544.91;1741835;82;20256;-54
2021/03/17 12:49:03;;;;;;;;;;;;;;;7.36;66.93;99544.73;1740083;81;20583;-54
2021/03/17 12:52:09;;;;;;;;;;;;;;;7.38;67.02;99543.20;1766785;81;20215;-54
2021/03/17 12:55:15;;;;;;;;;;;;;;;7.40;67.05;99545.23;1736391;82;20613;-53
2021/03/17 12:58:19;;;;;;;;;;;;;;;7.38;66.96;99545.42;1720430;83;20405;-54
2021/03/17 13:01:24;;;;;;;;;;;;;;;7.35;66.84;99547.13;1741496;82;20205;-54
2021/03/17 13:04:27;;;;;;;;;;;;;;;7.29;66.99;99547.81;1750242;82;20209;-55
2021/03/17 13:07:33;;;;;;;;;;;;;;;7.27;67.24;99544.94;1750181;82;20205;-54
2021/03/17 13:10:38;;;;;;;;;;;;;;;7.17;67.40;99547.00;1749407;82;20672;-54
2021/03/17 13:13:42;;;;;;;;;;;;;;;7.13;67.54;99546.53;1745982;82;20209;-54
2021/03/17 13:16:48;;;;;;;;;;;;;;;7.11;67.48;99555.87;1740256;82;20221;-54
2021/03/17 13:19:53;;;;;;;;;;;;;;;7.02;67.74;99554.20;1728034;82;20214;-54
2021/03/17 13:22:57;;;;;;;;;;;;;;;7.00;67.93;99563.90;1733778;81;20214;-56
2021/03/17 13:26:01;;;;;;;;;;;;;;;6.99;68.03;99561.35;1734002;83;20206;-55
2021/03/17 13:29:06;;;;;;;;;;;;;;;6.89;68.21;99564.26;1742719;81;20363;-56
2021/03/17 13:32:11;;;;;;;;;;;;;;;6.80;68.57;99566.63;1747222;81;20261;-56
2021/03/17 13:35:18;;;;;;;;;;;;;;;6.84;68.93;99568.00;1747190;82;20262;-55
2021/03/17 13:38:23;;;;;;;;;;;;;;;6.88;68.89;99567.98;1753834;82;20336;-55
2021/03/17 13:41:31;;;;;;;;;;;;;;;6.84;68.75;99572.58;1753633;82;20281;-53
2021/03/17 13:44:37;;;;;;;;;;;;;;;6.73;68.90;99569.72;1725154;83;20259;-55
2021/03/17 13:47:41;;;;;;;;;;;;;;;6.73;69.04;99574.30;1744881;80;20290;-54
2021/03/17 13:50:51;;;;;;;;;;;;;;;6.70;68.82;99564.63;1754161;82;20356;-53
2021/03/17 13:53:55;;;;;;;;;;;;;;;6.52;68.88;99565.80;1753847;82;20316;-54
2021/03/17 13:57:00;;;;;;;;;;;;;;;6.45;69.30;99560.72;1755303;82;20300;-54
2021/03/17 14:00:10;;;;;;;;;;;;;;;6.45;69.46;99569.73;1744675;82;20214;-54
2021/03/17 14:03:15;;;;;;;;;;;;;;;6.43;69.31;99567.69;1744810;81;20209;-54
2021/03/17 14:06:20;;;;;;;;;;;;;;;6.41;69.26;99567.00;1767234;80;20227;-53
2021/03/17 14:09:27;;;;;;;;;;;;;;;6.38;69.14;99567.34;1776355;79;20579;-54
2021/03/17 14:12:34;;;;;;;;;;;;;;;6.34;69.12;99571.92;1778227;79;20238;-54
2021/03/17 14:15:40;;;;;;;;;;;;;;;6.32;69.23;99567.16;1754884;81;20201;-54
2021/03/17 14:18:43;;;;;;;;;;;;;;;6.32;69.33;99569.38;1726864;82;20215;-54
2021/03/17 14:21:47;;;;;;;;;;;;;;;6.33;69.48;99576.50;1737013;82;20249;-53
2021/03/17 14:24:53;;;;;;;;;;;;;;;6.34;69.42;99571.92;1735142;82;20647;-53
2021/03/17 14:27:58;;;;;;;;;;;;;;;6.30;69.29;99568.69;1705828;83;20564;-52
2021/03/17 14:31:04;;;;;;;;;;;;;;;6.20;69.22;99567.98;1718462;83;20267;-54
2021/03/17 14:34:09;;;;;;;;;;;;;;;6.16;69.43;99572.08;1717411;83;20279;-54
2021/03/17 14:37:15;;;;;;;;;;;;;;;6.11;69.44;99571.72;1716795;83;20628;-54
2021/03/17 14:40:22;;;;;;;;;;;;;;;5.99;69.63;99563.56;1717440;83;20392;-54
2021/03/17 14:43:25;;;;;;;;;;;;;;;5.95;69.94;99567.11;1715770;83;20393;-53
2021/03/17 14:46:30;;;;;;;;;;;;;;;5.96;70.09;99562.54;1717424;83;20627;-54
2021/03/17 14:49:36;;;;;;;;;;;;;;;5.97;70.15;99566.45;1715600;82;20323;-54
2021/03/17 14:52:41;;;;;;;;;;;;;;;5.85;70.24;99561.50;1636003;87;20572;-54
2021/03/17 14:55:47;;;;;;;;;;;;;;;5.71;70.53;99562.08;1710588;83;20548;-54
2021/03/17 14:58:52;;;;;;;;;;;;;;;5.60;70.81;99565.09;1718544;82;20334;-54
2021/03/17 15:01:58;;;;;;;;;;;;;;;5.60;71.11;99559.17;1708793;83;20267;-54
2021/03/17 15:05:03;;;;;;;;;;;;;;;5.50;70.94;99549.47;1716844;83;20339;-53
2021/03/17 15:08:10;;;;;;;;;;;;;;;5.31;71.27;99555.16;1717143;83;20279;-54
2021/03/17 15:11:16;;;;;;;;;;;;;;;5.19;71.72;99572.22;1717671;83;20664;-55
2021/03/17 15:14:22;;;;;;;;;;;;;;;5.26;72.09;99570.58;1717744;83;20648;-56
2021/03/17 15:17:26;;;;;;;;;;;;;;;5.29;71.93;99574.31;1705325;82;20268;-55
2021/03/17 15:20:31;;;;;;;;;;;;;;;5.21;71.98;99581.55;1697544;84;20244;-55
2021/03/17 15:23:35;;;;;;;;;;;;;;;5.20;72.12;99582.58;1714339;81;20222;-54
2021/03/17 15:26:38;;;;;;;;;;;;;;;5.14;72.13;99584.58;1729075;83;20322;-53
2021/03/17 15:29:44;;;;;;;;;;;;;;;5.12;72.36;99593.38;1728203;83;20213;-54
2021/03/17 15:32:50;;;;;;;;;;;;;;;5.12;72.25;99587.42;1728180;81;20505;-55
2021/03/17 15:35:56;;;;;;;;;;;;;;;5.13;72.39;99591.86;1729248;83;20302;-54
2021/03/17 15:39:02;;;;;;;;;;;;;;;5.17;72.22;99591.04;1729385;81;20926;-54
2021/03/17 15:42:06;;;;;;;;;;;;;;;5.14;72.35;99585.94;1729302;81;20281;-54
2021/03/17 15:45:13;;;;;;;;;;;;;;;5.15;72.29;99588.98;1729972;83;20290;-54
2021/03/17 15:48:16;;;;;;;;;;;;;;;5.10;72.07;99589.97;1729825;81;20214;-52
2021/03/17 15:51:20;;;;;;;;;;;;;;;5.05;72.16;99585.52;1729655;83;20238;-53
2021/03/17 15:54:28;;;;;;;;;;;;;;;4.98;72.31;99602.11;1729832;81;20285;-52
2021/03/17 15:57:33;;;;;;;;;;;;;;;5.02;72.48;99603.48;1729886;81;20270;-53
2021/03/17 16:00:38;;;;;;;;;;;;;;;4.98;72.30;99600.23;1734348;82;20213;-53
2021/03/17 16:03:58;;;;;;;;;;;;;;;4.98;72.38;99607.53;1733714;81;20214;-52
2021/03/17 16:07:03;;;;;;;;;;;;;;;4.94;72.46;99610.20;1736290;82;20213;-52
2021/03/17 16:10:07;;;;;;;;;;;;;;;4.98;72.56;99615.67;1744235;82;20249;-53
2021/03/17 16:13:13;;;;;;;;;;;;;;;5.04;72.59;99619.09;1748282;82;20213;-53
2021/03/17 16:16:16;;;;;;;;;;;;;;;5.11;72.49;99622.36;1747619;82;20278;-54
2021/03/17 16:19:20;;;;;;;;;;;;;;;5.17;72.32;99624.95;1742365;82;20214;-51
2021/03/17 16:22:24;;;;;;;;;;;;;;;5.18;72.21;99631.56;1738683;81;20282;-52
2021/03/17 16:25:31;;;;;;;;;;;;;;;5.16;71.99;99645.78;1735397;82;20300;-52
2021/03/17 16:28:36;;;;;;;;;;;;;;;5.17;72.01;99643.41;1751329;80;20209;-52
2021/03/17 16:31:41;;;;;;;;;;;;;;;5.22;72.05;99649.70;1752851;82;20297;-52